createdAt,value
2022-11-04T00:00:18.746Z,5.35
2022-11-04T00:01:27.904Z,5.53
2022-11-04T00:02:40.256Z,5.58
2022-11-04T00:03:50.905Z,6.15
2022-11-04T00:06:15.557Z,5.23
2022-11-04T00:07:43.523Z,6.54
2022-11-04T00:08:54.425Z,5.84
2022-11-04T00:10:04.280Z,6.35
2022-11-04T00:12:45.981Z,5.73
2022-11-04T00:13:56.251Z,6.48
2022-11-04T00:16:58.206Z,6.07
2022-11-04T00:19:22.911Z,5.93
2022-11-04T00:22:50.154Z,6.28
2022-11-04T00:25:53.358Z,6.62
2022-11-04T00:28:43.674Z,5.75
2022-11-04T00:29:53.076Z,6.57
2022-11-04T00:31:23.034Z,6.20
2022-11-04T00:32:51.761Z,6.20
2022-11-04T00:35:19.684Z,6.02
2022-11-04T00:37:45.035Z,6.90
2022-11-04T00:38:53.842Z,6.65
2022-11-04T00:40:03.685Z,6.98
2022-11-04T00:41:29.292Z,6.50
2022-11-04T00:43:59.172Z,4.87
2022-11-04T00:45:09.256Z,5.43
2022-11-04T00:46:23.717Z,4.97
2022-11-04T00:48:50.224Z,4.25
2022-11-04T00:51:21.896Z,4.40
2022-11-04T00:52:30.861Z,4.32
2022-11-04T00:53:40.328Z,4.28
2022-11-04T00:54:49.546Z,4.53
2022-11-04T00:57:16.284Z,5.10
2022-11-04T00:59:40.640Z,4.83
2022-11-04T01:02:04.386Z,5.47
2022-11-04T01:03:13.601Z,5.83
2022-11-04T01:05:38.225Z,5.90
2022-11-04T01:06:47.778Z,6.45
2022-11-04T01:07:57.615Z,6.33
2022-11-04T01:09:08.556Z,5.83
2022-11-04T01:10:19.424Z,6.50
2022-11-04T01:11:31.053Z,6.63
2022-11-04T01:12:40.225Z,6.13
2022-11-04T01:15:08.120Z,6.32
2022-11-04T01:17:33.920Z,5.60
2022-11-04T01:18:43.156Z,6.05
2022-11-04T01:19:53.510Z,4.95
2022-11-04T01:21:06.282Z,6.10
2022-11-04T01:23:31.498Z,6.28
2022-11-04T01:24:40.692Z,6.30
2022-11-04T01:25:56.655Z,6.02
2022-11-04T01:28:26.963Z,6.78
2022-11-04T01:30:52.676Z,5.82
2022-11-04T01:32:02.028Z,6.85
2022-11-04T01:33:10.738Z,6.48
2022-11-04T01:34:20.405Z,6.28
2022-11-04T01:35:29.515Z,5.85
2022-11-04T01:37:54.932Z,5.80
2022-11-04T01:39:05.895Z,5.40
2022-11-04T01:40:15.944Z,6.27
2022-11-04T01:42:44.432Z,5.68
2022-11-04T01:43:59.596Z,6.48
2022-11-04T01:45:14.428Z,6.13
2022-11-04T01:46:46.387Z,6.57
2022-11-04T01:49:33.298Z,8.87
2022-11-04T01:50:47.118Z,7.55
2022-11-04T01:53:29.705Z,7.05
2022-11-04T01:56:01.237Z,6.45
2022-11-04T01:57:15.118Z,5.57
2022-11-04T01:58:28.811Z,6.02
2022-11-04T01:59:41.516Z,6.40
2022-11-04T02:02:07.948Z,5.57
2022-11-04T02:04:36.957Z,6.15
2022-11-04T02:05:47.186Z,5.45
2022-11-04T02:08:20.995Z,6.15
2022-11-04T02:09:33.130Z,6.75
2022-11-04T02:12:28.797Z,7.27
2022-11-04T02:13:38.123Z,7.85
2022-11-04T02:14:50.437Z,7.33
2022-11-04T02:19:14.571Z,9.60
2022-11-04T02:21:51.529Z,6.37
2022-11-04T02:26:47.051Z,6.00
2022-11-04T02:29:59.772Z,7.40
2022-11-04T02:35:53.248Z,7.78
2022-11-04T02:38:51.178Z,8.55
2022-11-04T02:41:50.411Z,9.88
2022-11-04T02:44:48.695Z,12.27
2022-11-04T02:47:25.124Z,10.68
2022-11-04T02:50:17.027Z,10.63
2022-11-04T02:54:50.459Z,7.33
2022-11-04T02:57:25.590Z,7.05
2022-11-04T03:00:06.510Z,6.35
2022-11-04T03:01:18.985Z,6.37
2022-11-04T03:02:35.755Z,5.90
2022-11-04T03:05:11.198Z,6.55
2022-11-04T03:08:03.659Z,6.77
2022-11-04T03:09:15.884Z,6.42
2022-11-04T03:10:38.312Z,7.67
2022-11-04T03:13:29.330Z,8.25
2022-11-04T03:14:45.198Z,6.72
2022-11-04T03:16:03.620Z,5.00
2022-11-04T03:17:22.890Z,4.87
2022-11-04T03:18:57.496Z,5.52
2022-11-04T03:20:20.075Z,5.32
2022-11-04T03:21:32.539Z,5.33
2022-11-04T03:24:09.405Z,4.93
2022-11-04T03:25:21.756Z,5.48
2022-11-04T03:28:14.256Z,6.35
2022-11-04T03:30:55.262Z,5.60
2022-11-04T03:34:45.673Z,6.73
2022-11-04T03:35:54.701Z,5.70
2022-11-04T03:38:23.179Z,5.07
2022-11-04T03:39:32.568Z,4.72
2022-11-04T03:40:47.943Z,4.17
2022-11-04T03:43:22.440Z,4.62
2022-11-04T03:45:47.707Z,4.58
2022-11-04T03:47:05.775Z,4.35
2022-11-04T03:48:15.102Z,3.98
2022-11-04T03:50:47.171Z,4.30
2022-11-04T03:51:58.902Z,4.05
2022-11-04T03:53:10.674Z,4.70
2022-11-04T03:54:20.808Z,4.90
2022-11-04T03:57:36.230Z,4.98
2022-11-04T03:59:13.148Z,5.38
2022-11-04T04:02:00.127Z,6.62
2022-11-04T04:06:21.645Z,7.50
2022-11-04T04:08:57.623Z,5.10
2022-11-04T04:10:31.431Z,5.25
2022-11-04T04:12:08.997Z,4.53
2022-11-04T04:16:09.662Z,4.22
2022-11-04T04:17:30.331Z,4.57
2022-11-04T04:20:05.537Z,5.47
2022-11-04T04:24:15.936Z,5.60
2022-11-04T04:27:22.204Z,5.03
2022-11-04T04:29:47.714Z,5.48
2022-11-04T04:32:09.538Z,5.32
2022-11-04T04:33:19.744Z,5.18
2022-11-04T04:34:31.306Z,5.10
2022-11-04T04:35:44.538Z,5.45
2022-11-04T04:37:06.456Z,5.48
2022-11-04T04:38:44.453Z,6.37
2022-11-04T04:41:51.038Z,6.50
2022-11-04T04:45:05.709Z,7.95
2022-11-04T04:46:15.667Z,6.78
2022-11-04T04:48:43.448Z,5.15
2022-11-04T07:05:37.126Z,16.85
2022-11-04T07:08:02.001Z,11.87
2022-11-04T07:10:29.621Z,8.70
2022-11-04T07:12:57.280Z,8.50
2022-11-04T07:15:27.440Z,8.93
2022-11-04T07:19:01.524Z,8.77
2022-11-04T07:21:29.544Z,8.80
2022-11-04T07:23:55.351Z,8.67
2022-11-04T07:26:21.443Z,9.35
2022-11-04T07:28:46.251Z,8.42
2022-11-04T07:31:14.008Z,8.88
2022-11-04T07:33:41.755Z,8.50
2022-11-04T07:36:07.724Z,8.12
2022-11-04T07:38:32.971Z,9.10
2022-11-04T07:40:58.634Z,8.85
2022-11-04T07:43:24.702Z,8.78
2022-11-04T07:44:34.506Z,8.20
2022-11-04T07:47:04.517Z,8.83
2022-11-04T07:48:13.210Z,8.24
2022-11-04T07:49:22.451Z,8.82
2022-11-04T07:51:48.097Z,9.72
2022-11-04T07:54:13.016Z,11.10
2022-11-04T07:55:21.755Z,12.02
2022-11-04T07:57:46.838Z,12.36
2022-11-04T07:58:56.549Z,12.08
2022-11-04T08:01:40.924Z,9.87
2022-11-04T08:02:50.216Z,9.97
2022-11-04T08:05:14.726Z,9.85
2022-11-04T08:07:39.598Z,10.25
2022-11-04T08:10:06.419Z,10.70
2022-11-04T08:12:35.558Z,11.57
2022-11-04T08:15:01.965Z,12.22
2022-11-04T08:17:31.063Z,9.83
2022-11-04T08:19:57.658Z,9.25
2022-11-04T08:22:23.199Z,8.27
2022-11-04T08:24:48.638Z,7.82
2022-11-04T08:27:15.093Z,9.70
2022-11-04T08:29:40.145Z,11.25
2022-11-04T08:32:13.920Z,11.10
2022-11-04T08:34:41.589Z,11.77
2022-11-04T08:37:06.369Z,12.05
2022-11-04T08:39:31.704Z,10.00
2022-11-04T08:41:57.389Z,9.12
2022-11-04T08:44:23.359Z,10.30
2022-11-04T08:46:48.511Z,10.22
2022-11-04T08:49:19.522Z,10.95
2022-11-04T08:51:44.499Z,11.37
2022-11-04T08:54:10.792Z,9.42
2022-11-04T08:56:38.471Z,9.05
2022-11-04T08:59:04.135Z,9.10
2022-11-04T09:01:36.561Z,9.27
2022-11-04T09:04:00.754Z,9.50
2022-11-04T09:07:43.712Z,12.18
2022-11-04T09:10:12.075Z,9.58
2022-11-04T09:12:37.599Z,61.67
2022-11-04T09:15:02.648Z,19.47
2022-11-04T09:16:13.412Z,13.03
2022-11-04T09:18:38.097Z,11.67
2022-11-04T09:21:04.665Z,10.90
2022-11-04T09:23:29.201Z,9.88
2022-11-04T09:25:53.398Z,8.80
2022-11-04T09:28:18.336Z,9.48
2022-11-04T09:30:43.563Z,9.67
2022-11-04T09:33:07.586Z,10.55
2022-11-04T09:35:33.188Z,10.75
2022-11-04T09:38:00.886Z,11.12
2022-11-04T09:40:27.533Z,11.25
2022-11-04T09:43:33.239Z,11.46
2022-11-04T09:46:17.506Z,12.07
2022-11-04T09:48:48.833Z,12.47
2022-11-04T09:51:39.695Z,12.58
2022-11-04T09:54:05.877Z,11.80
2022-11-04T09:56:43.296Z,12.13
2022-11-04T09:59:14.475Z,10.22
2022-11-04T10:01:42.586Z,7.82
2022-11-04T10:02:55.988Z,7.70
2022-11-04T10:06:07.735Z,9.23
2022-11-04T14:54:40.864Z,15.95
2022-11-04T14:57:18.019Z,11.15
2022-11-04T14:59:45.784Z,10.68
2022-11-04T15:06:34.892Z,11.25
2022-11-04T15:08:56.616Z,10.65
2022-11-04T15:12:00.230Z,12.58
2022-11-04T15:14:27.635Z,11.93
2022-11-04T15:16:58.632Z,13.40
2022-11-04T15:19:39.087Z,18.30
2022-11-04T15:22:12.103Z,15.00
2022-11-04T15:24:52.819Z,13.88
2022-11-04T15:27:41.273Z,12.70
2022-11-04T15:31:39.087Z,14.62
2022-11-04T15:34:14.481Z,13.36
2022-11-04T15:36:42.156Z,14.13
2022-11-04T15:37:52.783Z,13.97
2022-11-04T15:40:38.919Z,14.15
2022-11-04T15:43:26.939Z,14.00
2022-11-04T15:45:56.427Z,14.62
2022-11-04T15:48:37.494Z,15.07
2022-11-04T15:51:24.003Z,15.70
2022-11-04T15:53:55.945Z,15.28
2022-11-04T15:56:28.758Z,16.77
2022-11-04T15:58:58.920Z,15.18
2022-11-04T16:01:32.370Z,16.48
2022-11-04T16:04:28.429Z,16.47
2022-11-04T16:08:30.049Z,18.23
2022-11-04T16:11:17.749Z,16.42
2022-11-04T16:13:46.877Z,16.22
2022-11-04T16:17:44.472Z,15.40
2022-11-04T16:20:37.365Z,15.90
2022-11-04T16:23:04.396Z,15.33
2022-11-04T16:25:38.351Z,16.75
2022-11-04T16:28:04.051Z,16.92
2022-11-04T16:32:22.148Z,16.28
2022-11-04T16:34:49.728Z,18.65
2022-11-04T16:37:13.667Z,17.55
2022-11-04T16:39:38.259Z,16.88
2022-11-04T16:42:05.949Z,13.15
2022-11-04T16:45:00.597Z,12.57
2022-11-04T16:47:30.185Z,13.03
2022-11-04T16:49:55.302Z,14.48
2022-11-04T16:52:44.023Z,31.32
2022-11-04T16:55:09.342Z,16.17
2022-11-04T16:57:37.331Z,17.45
2022-11-04T17:00:01.503Z,17.77
2022-11-04T17:02:42.334Z,17.97
2022-11-04T17:05:09.800Z,19.25
2022-11-04T17:07:52.811Z,20.62
2022-11-04T17:10:23.186Z,20.20
2022-11-04T17:12:46.940Z,44.62
2022-11-04T17:15:13.240Z,27.38
2022-11-04T17:17:37.425Z,26.47
2022-11-04T17:20:05.325Z,26.32
2022-11-04T17:22:36.279Z,31.20
2022-11-04T17:25:00.801Z,27.00
2022-11-04T17:27:27.118Z,24.45
2022-11-04T17:29:53.216Z,25.03
2022-11-04T17:32:18.382Z,25.63
2022-11-04T17:34:42.773Z,18.75
2022-11-04T17:37:10.886Z,18.87
2022-11-04T17:39:35.042Z,19.40
2022-11-04T17:42:38.327Z,19.40
2022-11-04T17:45:17.194Z,18.85
2022-11-04T17:47:55.745Z,20.43
2022-11-04T17:50:29.639Z,28.28
2022-11-04T17:52:58.669Z,23.05
2022-11-04T17:55:27.644Z,19.63
2022-11-04T17:57:52.822Z,16.63
2022-11-04T18:00:21.559Z,19.32
2022-11-04T21:23:22.588Z,33.40
2022-11-04T21:25:51.403Z,23.77
2022-11-04T21:28:18.480Z,26.05
2022-11-04T21:30:51.370Z,28.82
2022-11-04T21:33:16.549Z,23.53
2022-11-04T21:35:43.911Z,27.73
2022-11-04T21:38:10.694Z,26.48
2022-11-04T21:40:35.623Z,27.55
2022-11-04T21:43:19.834Z,28.03
2022-11-04T21:45:44.372Z,31.70
2022-11-04T21:48:09.495Z,32.58
2022-11-04T21:50:34.544Z,32.97
2022-11-04T21:53:20.614Z,31.12
2022-11-04T21:55:45.858Z,27.45
2022-11-04T21:58:09.897Z,19.47
2022-11-04T22:00:34.690Z,12.20
2022-11-04T22:02:58.447Z,10.70
2022-11-04T22:05:23.313Z,14.33
2022-11-04T22:08:08.765Z,19.48
2022-11-04T22:10:35.119Z,22.70
2022-11-04T22:12:59.777Z,20.93
2022-11-04T22:15:44.232Z,24.37
2022-11-04T22:18:09.142Z,18.58
2022-11-04T22:20:35.266Z,16.15
2022-11-04T22:23:01.717Z,13.37
2022-11-04T22:24:13.274Z,14.05
2022-11-04T22:26:57.378Z,14.50
2022-11-04T22:29:22.045Z,13.72
2022-11-04T22:31:45.885Z,14.60
2022-11-04T22:34:10.950Z,14.02
2022-11-04T22:36:35.974Z,13.53
2022-11-04T22:39:01.704Z,13.78
2022-11-04T22:41:31.490Z,14.12
2022-11-04T22:43:56.077Z,13.18
2022-11-04T22:47:43.791Z,12.15
2022-11-04T22:50:09.091Z,12.77
2022-11-04T22:52:32.749Z,13.02
2022-11-04T22:55:00.048Z,22.65
2022-11-04T22:57:28.222Z,19.70
2022-11-04T22:59:54.559Z,18.95
2022-11-04T23:02:22.640Z,16.83
2022-11-04T23:04:47.111Z,14.52
2022-11-04T23:07:18.664Z,14.03
2022-11-04T23:10:03.942Z,13.43
2022-11-04T23:13:14.411Z,15.02
2022-11-04T23:16:18.098Z,14.30
2022-11-04T23:19:01.831Z,14.18
2022-11-04T23:21:48.793Z,13.38
2022-11-04T23:25:05.357Z,14.97
2022-11-04T23:27:47.782Z,14.67
2022-11-04T23:30:34.498Z,14.55
2022-11-04T23:33:17.553Z,13.30
2022-11-04T23:38:08.918Z,15.43
2022-11-04T23:40:34.498Z,14.18
2022-11-04T23:43:17.873Z,18.58
2022-11-04T23:46:19.487Z,42.63
2022-11-04T23:49:15.234Z,34.15
2022-11-04T23:52:19.041Z,33.00
2022-11-04T23:55:19.980Z,33.20
2022-11-04T23:58:21.436Z,28.13
